Cruz Bay, VI

6:03 AM AST on August 23, 2014 (GMT -0400)
Great Cruz Bay, St John | Change Station
CLOSE
Current Station
Personal Weather Station
Location: St John, VI
Elevation: 59 ft
Nearby Weather Stations
Active Advisory: Flash Flood Watch

Elev 59 ft 18.33 °N, 64.79 °W | Updated 45 seconds ago

Scattered Clouds
Scattered Clouds
80.1 °F
Feels Like 86 °F
N
10.0
Wind Variable Wind from ESE
Gusts 10.0 mph

Today
High -- | Low -- °F
--% Chance of Precip.
Yesterday
High -- | Low -- °F
Precip. -- in
6:02 AM 6:40 PM
Waning Crescent, 4% visible
Pressure 29.89 in
Visibility 10.0 miles
Clouds Scattered Clouds 2000 ft
Heat Index 86 °F
Dew Point 77 °F
Humidity 90%
Rainfall 0.00 in
Snow Depth Not available.
UV 0 out of 12
Pollen Not available.
Air Quality Not available.
Flu Activity Not available.
METAR TISX 230953Z 12010KT 10SM SCT020 28/24 A2990 RMK AO2 RAB31E42 SLP122 P0000 T02780244 $

More Conditions Fewer Conditions

Pressure 29.89 in
Visibility 10.0 miles
Clouds Scattered Clouds 2000 ft
Heat Index 86 °F
Dew Point 77 °F
Humidity 90%
Rainfall 0.00 in
Snow Depth Not available.
UV 0 out of 12
Pollen Not available.
Air Quality Not available.
Flu Activity Not available.
METAR TISX 230953Z 12010KT 10SM SCT020 28/24 A2990 RMK AO2 RAB31E42 SLP122 P0000 T02780244 $

More Conditions Fewer Conditions

Nowcast | as of 2:51 am AST on August 23, 2014

Numerous showers and isolated thunderstorms over the Caribbean Sea will continue to move onshore over Puerto Rico and the U.S. Virgin Islands on strong southeast flow. Showers will be fast movers but there will be repeated activity over the same areas. Showers will be capable of producing half inch of rain per hour...ponding of water on roadways...reduced visibilities and frequent lightning.

×

10-Day Weather Forecast

Almanac

Astronomy

Aug. 23, 2014 Rise Set
Actual Time 6:02 AM AST 6:40 PM AST
Civil Twilight 5:40 AM AST 7:02 PM AST
Nautical Twilight 5:14 AM AST 7:28 PM AST
Astronomical Twilight 4:47 AM AST 7:55 PM AST
Moon 4:21 AM AST 5:19 PM AST
Length of Visible Light 13h 22m
Length of Day
12h 37m
Tomorrow will be 0m 58s shorter.
Waning Crescent, 4% of the Moon is Illuminated
Today
Waning Crescent
Aug 25
New
Sep 2
First Quarter
Sep 8
Full
Sep 15
Last Quarter

Community

WunderPhotos

Upload Photos

1,746,396 photos uploaded!

WunderBlogs® & News

By Dr. Jeff Masters
Director of Meteorology, Weather Underground
By Kari Strenfel
Meteorologist, Weather Underground
By Christopher C. Burt
Weather Historian, Weather Underground
August 23, 2014
August 23, 2014
August 22, 2014

Nearby

Snow Depth

Station Depth Elevation
No new snow has been reported.

Earthquake Activity

City Distance Mag. Time & Date
No recent earthquake activity has been reported nearby.
Minimum magnitude displayed is 2.5.

Coastal Water Temperatures

Place Temperature
Yabucoa Harbor, PR 78.1 °F
Esperanza, PR 82.0 °F
Charlotte Amalie, VI 84.0 °F

Nearby Weather Stations